Flight Track Log - Related Links

Times and Time Zones

All times are in EDT time to prevent confusion due to time zone crossing. See the JBU202 flight status page for this flight to view local times or setup timezone preferences in your user account.

Time Position Orientation Groundspeed Altitude Reporting Facility
EDT Latitude Longitude Course Direction KTS MPH feet Rate Location/Type
Sat 01:04:10 AM 33.8333 -118.1833 216° Southwest 176 203 1,900  Level Southern California TRACON
Sat 01:05:34 AM 33.7786 -118.2317 216° Southwest 238 274 3,900 869 Climbing Los Angeles Center
Sat 01:06:35 AM 33.7086 -118.2481 191° South 249 287 4,000 1,033 Climbing Los Angeles Center
Sat 01:07:36 AM 33.6394 -118.2656 192° South 249 287 6,000 2,164 Climbing Los Angeles Center
Sat 01:08:37 AM 33.5675 -118.2819 191° South 256 295 8,400 2,262 Climbing Los Angeles Center
Sat 01:09:38 AM 33.5347 -118.2094 118° Southeast 293 337 10,600 1,426 Climbing Los Angeles Center
Sat 01:10:39 AM 33.5647 -118.1106 70° East 314 361 11,300 1,230 Climbing Los Angeles Center
Sat 01:11:40 AM 33.6100 -118.0100 62° Northeast 341 392 13,100 1,820 Climbing Los Angeles Center
Sat 01:12:41 AM 33.6608 -117.8814 65° Northeast 355 409 15,000 1,574 Climbing Los Angeles Center
Sat 01:13:42 AM 33.7050 -117.7725 64° Northeast 362 417 16,300 1,426 Climbing Los Angeles Center
Sat 01:14:43 AM 33.7225 -117.6497 80° East 392 451 17,900 1,328 Climbing Los Angeles Center
Sat 01:15:44 AM 33.7150 -117.5203 94° East 394 453 19,000 1,082 Climbing Los Angeles Center
Sat 01:16:45 AM 33.7069 -117.3886 94° East 395 455 20,100 1,180 Climbing Los Angeles Center
Sat 01:17:46 AM 33.6989 -117.2522 94° East 409 471 21,400 1,377 Climbing Los Angeles Center
Sat 01:18:47 AM 33.6903 -117.1117 94° East 421 484 22,900 1,426 Climbing Los Angeles Center
Sat 01:19:48 AM 33.6808 -116.9664 94° East 435 501 24,300 1,328 Climbing Los Angeles Center
Sat 01:20:49 AM 33.6719 -116.8231 94° East 443 510 25,600 1,279 Climbing Los Angeles Center
Sat 01:21:50 AM 33.6614 -116.6722 95° East 451 519 26,900 1,289 Climbing Los Angeles Center
Sat 01:22:50 AM 33.6739 -116.5192 84° East 466 536 28,200 1,289 Climbing Los Angeles Center
Sat 01:23:51 AM 33.7178 -116.3408 73° East 463 533 29,500 1,131 Climbing Los Angeles Center
Sat 01:24:52 AM 33.7531 -116.1858 75° East 475 547 30,500 984 Climbing Los Angeles Center
Sat 01:25:53 AM 33.7908 -116.0283 74° East 486 559 31,500 1,082 Climbing Los Angeles Center
Sat 01:26:54 AM 33.8286 -115.8703 74° East 490 564 32,700 1,279 Climbing Los Angeles Center
Sat 01:27:55 AM 33.8650 -115.7131 74° East 490 564 34,100 1,131 Climbing Los Angeles Center
Sat 01:28:56 AM 33.9106 -115.5631 70° East 482 555 35,000 393 Climbing Los Angeles Center
Sat 01:29:57 AM 33.9556 -115.4058 71° East 489 563 34,900  Descending Los Angeles Center
Sat 01:30:58 AM 34.0028 -115.2456 70° East 503 579 35,000 49 Climbing Los Angeles Center
Sat 01:31:59 AM 34.0478 -115.0867 71° East 502 578 35,000  Level Los Angeles Center
Sat 01:33:00 AM 34.0928 -114.9281 71° East 501 577 35,000  Level Los Angeles Center
Sat 01:34:01 AM 34.1367 -114.7706 71° East 496 571 35,000  Level Los Angeles Center
Sat 01:35:01 AM 34.1817 -114.6128 71° East 495 570 35,000 -50 Level Los Angeles Center
Sat 01:36:02 AM 34.2256 -114.4525 72° East 503 579 34,900  Descending Los Angeles Center
Sat 01:36:50 AM 34.2631 -114.3197 71° East 497 572 35,000 57 Climbing Albuquerque Center
Sat 01:37:48 AM 34.3078 -114.1594 71° East 499 574 35,000  Level Albuquerque Center
Sat 01:38:48 AM 34.3511 -114.0019 72° East 496 571 35,000  Level Albuquerque Center
Sat 01:39:49 AM 34.3936 -113.8450 72° East 494 568 35,000  Level Albuquerque Center
Sat 01:40:49 AM 34.4356 -113.6914 72° East 487 560 35,000  Level Albuquerque Center
Sat 01:41:50 AM 34.4753 -113.5417 72° East 488 562 35,000  Level Albuquerque Center
Sat 01:42:52 AM 34.5169 -113.3861 72° East 489 563 35,000  Level Albuquerque Center
Sat 01:43:49 AM 34.5581 -113.2319 72° East 487 560 35,000  Level Albuquerque Center
Sat 01:44:50 AM 34.5992 -113.0764 72° East 488 562 35,000  Level Albuquerque Center
Sat 01:45:52 AM 34.6397 -112.9200 72° East 489 563 35,000  Level Albuquerque Center
Sat 01:46:50 AM 34.6800 -112.7653 72° East 488 562 35,000  Level Albuquerque Center
Sat 01:47:51 AM 34.7206 -112.6111 72° East 486 559 35,000  Level Albuquerque Center
Sat 01:48:51 AM 34.7681 -112.4261 73° East 485 558 35,000  Level Albuquerque Center
Sat 01:49:51 AM 34.8075 -112.2736 72° East 481 554 35,000  Level Albuquerque Center
Sat 01:50:52 AM 34.8458 -112.1206 73° East 480 552 35,000  Level Albuquerque Center
Sat 01:51:54 AM 34.8844 -111.9678 73° East 478 550 35,000  Level Albuquerque Center
Sat 01:52:52 AM 34.9233 -111.8153 73° East 476 548 35,000  Level Albuquerque Center
Sat 01:53:54 AM 34.9586 -111.6731 73° East 478 550 35,000  Level Albuquerque Center
Sat 01:54:52 AM 34.9978 -111.5175 73° East 477 549 35,000  Level Albuquerque Center
Sat 01:55:53 AM 35.0358 -111.3608 73° East 481 554 35,000  Level Albuquerque Center
Sat 01:56:56 AM 35.0747 -111.2047 73° East 481 554 35,000  Level Albuquerque Center
Sat 01:57:53 AM 35.1172 -111.0322 73° East 481 554 35,000  Level Albuquerque Center
Sat 01:58:54 AM 35.1544 -110.8836 73° East 479 551 35,000  Level Albuquerque Center
Sat 01:59:54 AM 35.1969 -110.7078 73° East 482 555 35,000  Level Albuquerque Center
Sat 02:00:54 AM 35.2328 -110.5592 74° East 480 552 35,000  Level Albuquerque Center
Sat 02:01:56 AM 35.2672 -110.4083 74° East 480 552 35,000  Level Albuquerque Center
Sat 02:02:55 AM 35.3028 -110.2586 74° East 479 551 35,000  Level Albuquerque Center
Sat 02:03:55 AM 35.3458 -110.0844 73° East 479 551 35,000  Level Albuquerque Center
Sat 02:04:58 AM 35.3811 -109.9342 74° East 479 551 35,000  Level Albuquerque Center
Sat 02:05:56 AM 35.4161 -109.7833 74° East 481 554 35,000  Level Albuquerque Center
Sat 02:06:57 AM 35.4572 -109.6058 74° East 484 557 35,000  Level Albuquerque Center
Sat 02:07:57 AM 35.4906 -109.4519 75° East 487 560 35,000  Level Albuquerque Center
Sat 02:08:58 AM 35.5264 -109.2986 74° East 490 564 35,000  Level Albuquerque Center
Sat 02:09:58 AM 35.5608 -109.1464 74° East 488 562 35,000  Level Albuquerque Center
Sat 02:10:59 AM 35.6006 -108.9686 75° East 487 560 35,000  Level Albuquerque Center
Sat 02:11:57 AM 35.6350 -108.8161 74° East 487 560 35,000 356 Level Albuquerque Center
Sat 02:12:57 AM 35.6683 -108.6622 75° East 489 563 35,700 793 Climbing Albuquerque Center
Sat 02:13:58 AM 35.7086 -108.4842 74° East 488 562 36,600 639 Climbing Albuquerque Center
Sat 02:14:59 AM 35.7417 -108.3300 75° East 489 563 37,000 200 Climbing Albuquerque Center
Sat 02:15:58 AM 35.7744 -108.1781 75° East 485 558 37,000  Level Albuquerque Center
Sat 02:16:58 AM 35.8125 -107.9989 75° East 485 558 37,000  Level Albuquerque Center
Sat 02:17:58 AM 35.8453 -107.8447 75° East 487 560 37,000  Level Albuquerque Center
Sat 02:18:59 AM 35.8778 -107.6928 75° East 483 556 37,000  Level Albuquerque Center
Sat 02:20:00 AM 35.9161 -107.5147 75° East 482 555 37,000  Level Albuquerque Center
Sat 02:20:59 AM 35.9475 -107.3625 76° East 481 554 37,000  Level Albuquerque Center
Sat 02:22:01 AM 35.9794 -107.2081 76° East 483 556 37,000  Level Albuquerque Center
Sat 02:23:03 AM 36.0114 -107.0533 76° East 485 558 37,000 49 Level Albuquerque Center
Sat 02:24:03 AM 36.0503 -106.8686 75° East 494 568 37,100  Climbing Albuquerque Center
Sat 02:25:00 AM 36.0825 -106.7119 76° East 493 567 37,000 -51 Descending Albuquerque Center
Sat 02:26:01 AM 36.1144 -106.5553 76° East 492 566 37,000 -50 Level Albuquerque Center
Sat 02:27:01 AM 36.1494 -106.3750 76° East 497 572 36,900 -50 Descending Albuquerque Center
Sat 02:28:01 AM 36.1825 -106.2100 76° East 494 568 36,900 49 Level Albuquerque Center
Sat 02:29:03 AM 36.2150 -106.0419 76° East 495 570 37,000 49 Climbing Albuquerque Center
Sat 02:30:03 AM 36.2478 -105.8753 76° East 496 571 37,000  Level Albuquerque Center
Sat 02:31:02 AM 36.2800 -105.7083 76° East 496 571 37,000  Level Albuquerque Center
Sat 02:32:03 AM 36.3108 -105.5425 77° East 494 568 37,000  Level Albuquerque Center
Sat 02:33:06 AM 36.3403 -105.3953 76° East 488 562 37,000  Level Albuquerque Center
Sat 02:34:03 AM 36.3717 -105.2300 77° East 487 560 37,000  Level Albuquerque Center
Sat 02:35:04 AM 36.4014 -105.0681 77° East 481 554 37,000  Level Albuquerque Center
Sat 02:36:04 AM 36.4317 -104.9042 77° East 481 554 37,000  Level Albuquerque Center
Sat 02:37:05 AM 36.4625 -104.7389 77° East 484 557 37,000  Level Albuquerque Center
Sat 02:38:06 AM 36.4936 -104.5728 77° East 487 560 37,000 50 Level Albuquerque Center
Sat 02:39:06 AM 36.5236 -104.4039 77° East 492 566 37,100 50 Climbing Albuquerque Center
Sat 02:40:05 AM 36.5544 -104.2353 77° East 495 570 37,100 -50 Level Albuquerque Center
Sat 02:41:05 AM 36.5844 -104.0669 77° East 494 568 37,000 -50 Descending Albuquerque Center
Sat 02:42:05 AM 36.6139 -103.9019 77° East 489 563 37,000  Level Albuquerque Center
Sat 02:43:06 AM 36.6436 -103.7356 77° East 487 560 37,000  Level Albuquerque Center
Sat 02:44:07 AM 36.6733 -103.5653 78° East 488 562 37,000  Level Albuquerque Center
Sat 02:45:06 AM 36.7003 -103.4072 78° East 488 562 37,000  Level Albuquerque Center
Sat 02:46:07 AM 36.7267 -103.2486 78° East 490 564 37,000  Level Albuquerque Center
Sat 02:47:09 AM 36.7578 -103.0664 78° East 486 559 37,000  Level Albuquerque Center
Sat 02:48:07 AM 36.7839 -102.9106 78° East 482 555 37,000  Level Albuquerque Center
Sat 02:49:10 AM 36.8094 -102.7542 78° East 482 555 37,000  Level Albuquerque Center
Sat 02:50:08 AM 36.8358 -102.5981 78° East 483 556 37,000  Level Albuquerque Center
Sat 02:51:10 AM 36.8647 -102.4175 79° East 487 560 37,000  Level Albuquerque Center
Sat 02:52:11 AM 36.8925 -102.2575 78° East 485 558 37,000  Level Albuquerque Center
Sat 02:53:11 AM 36.9169 -102.1008 79° East 483 556 37,000  Level Albuquerque Center
Sat 02:54:09 AM 36.9461 -101.9161 79° East 485 558 37,000  Level Albuquerque Center
Sat 02:54:39 AM 36.9567 -101.8358 81° East 483 556 37,000  Level Kansas City Center
Sat 02:55:39 AM 36.9819 -101.6792 79° East 482 555 37,000  Level Kansas City Center
Sat 02:57:00 AM 37.0152 -101.4701 79° East  Level FlightAware Approximate
Sat 02:59:40 AM 37.0828 -101.0242 81° East 483 556 37,000  Level Kansas City Center
Sat 03:00:40 AM 37.1106 -100.8403 79° East 484 557 37,000  Level Kansas City Center
Sat 03:01:40 AM 37.1342 -100.6819 79° East 486 559 37,000  Level Kansas City Center
Sat 03:02:40 AM 37.1578 -100.5233 79° East 487 560 37,000  Level Kansas City Center
Sat 03:03:40 AM 37.1839 -100.3400 80° East 483 556 37,000  Level Kansas City Center
Sat 03:04:00 AM 37.1791 -100.3825 81° East  Level FlightAware Approximate
Sat 03:04:40 AM 37.2064 -100.1836 80° East 481 554 37,000  Level Kansas City Center
Sat 03:05:40 AM 37.2283 -100.0278 80° East 477 549 37,000  Level Kansas City Center
Sat 03:06:41 AM 37.2500 -99.8711 80° East 478 550 37,000  Level Kansas City Center
Sat 03:07:41 AM 37.2750 -99.6911 80° East 473 544 37,000  Level Kansas City Center
Sat 03:08:41 AM 37.2964 -99.5356 80° East 473 544 37,000  Level Kansas City Center
Sat 03:09:41 AM 37.3197 -99.3808 79° East 475 547 37,000  Level Kansas City Center
Sat 03:10:41 AM 37.3406 -99.2200 81° East 471 542 37,000  Level Kansas City Center
Sat 03:11:41 AM 37.3603 -99.0589 81° East 468 539 37,000  Level Kansas City Center
Sat 03:12:41 AM 37.3814 -98.8967 81° East 471 542 37,000  Level Kansas City Center
Sat 03:13:42 AM 37.4022 -98.7342 81° East 472 543 37,000  Level Kansas City Center
Sat 03:14:42 AM 37.4231 -98.5728 81° East 471 542 37,000  Level Kansas City Center
Sat 03:15:42 AM 37.4442 -98.4114 81° East 470 541 37,000  Level Kansas City Center
Sat 03:16:42 AM 37.4644 -98.2489 81° East 471 542 37,000  Level Kansas City Center
Sat 03:17:42 AM 37.4844 -98.0856 81° East 475 547 37,000  Level Kansas City Center
Sat 03:18:42 AM 37.5042 -97.9228 81° East 475 547 37,000  Level Kansas City Center
Sat 03:19:43 AM 37.5247 -97.7614 81° East 473 544 37,000  Level Kansas City Center
Sat 03:20:43 AM 37.5439 -97.5992 81° East 473 544 37,000  Level Kansas City Center
Sat 03:21:43 AM 37.5639 -97.4372 81° East 472 543 37,000  Level Kansas City Center
Sat 03:22:43 AM 37.5825 -97.2733 82° East 475 547 37,000  Level Kansas City Center
Sat 03:23:43 AM 37.6050 -97.0781 82° East 471 542 37,000  Level Kansas City Center
Sat 03:24:44 AM 37.6242 -96.9167 81° East 468 539 37,000  Level Kansas City Center
Sat 03:25:44 AM 37.6425 -96.7547 82° East 468 539 37,000  Level Kansas City Center
Sat 03:26:44 AM 37.6606 -96.5925 82° East 468 539 37,000  Level Kansas City Center
Sat 03:27:44 AM 37.6775 -96.4303 82° East 467 537 37,000  Level Kansas City Center
Sat 03:28:44 AM 37.6961 -96.2672 82° East 470 541 37,000  Level Kansas City Center
Sat 03:29:44 AM 37.7131 -96.1028 83° East 466 536 37,000  Level Kansas City Center
Sat 03:30:45 AM 37.7283 -95.9625 82° East 465 535 37,000  Level Kansas City Center
Sat 03:31:45 AM 37.7456 -95.7967 82° East 472 543 37,000  Level Kansas City Center
Sat 03:32:45 AM 37.7628 -95.6328 82° East 470 541 37,000  Level Kansas City Center
Sat 03:33:45 AM 37.7800 -95.4694 82° East 470 541 37,000  Level Kansas City Center
Sat 03:34:45 AM 37.7953 -95.3058 83° East 468 539 37,000  Level Kansas City Center
Sat 03:35:46 AM 37.8114 -95.1444 83° East 465 535 37,000  Level Kansas City Center
Sat 03:36:46 AM 37.8283 -94.9650 83° East 462 532 37,000  Level Kansas City Center
Sat 03:37:46 AM 37.8431 -94.8106 83° East 462 532 37,000  Level Kansas City Center
Sat 03:38:46 AM 37.8581 -94.6592 83° East 458 527 37,000  Level Kansas City Center
Sat 03:39:46 AM 37.8722 -94.5061 83° East 459 528 37,000  Level Kansas City Center
Sat 03:40:47 AM 37.8878 -94.3214 84° East 457 526 37,000  Level Kansas City Center
Sat 03:41:47 AM 37.9036 -94.1597 83° East 460 529 37,000 50 Level Kansas City Center
Sat 03:42:47 AM 37.9172 -93.9978 84° East 463 533 37,100 350 Climbing Kansas City Center
Sat 03:43:47 AM 37.9311 -93.8378 84° East 458 527 37,700 694 Climbing Kansas City Center
Sat 03:44:48 AM 37.9456 -93.6753 84° East 461 531 38,500 645 Climbing Kansas City Center
Sat 03:45:48 AM 37.9586 -93.5125 84° East 463 533 39,000 250 Climbing Kansas City Center
Sat 03:46:48 AM 37.9714 -93.3539 84° East 456 525 39,000  Level Kansas City Center
Sat 03:47:48 AM 37.9850 -93.1944 84° East 454 522 39,000  Level Kansas City Center
Sat 03:48:49 AM 38.0000 -93.0317 83° East 463 533 39,000  Level Kansas City Center
Sat 03:49:49 AM 38.0125 -92.8708 84° East 459 528 39,000  Level Kansas City Center
Sat 03:50:49 AM 38.0233 -92.7228 85° East 457 526 39,000  Level Kansas City Center
Sat 03:51:49 AM 38.0356 -92.5653 84° East 454 522 39,000  Level Kansas City Center
Sat 03:52:50 AM 38.0500 -92.4125 83° East 446 513 39,000  Level Kansas City Center
Sat 03:53:50 AM 38.0603 -92.2528 85° East 455 524 39,000  Level Kansas City Center
Sat 03:54:50 AM 38.0697 -92.0992 85° East 443 510 39,000  Level Kansas City Center
Sat 03:55:51 AM 38.0797 -91.9478 85° East 437 503 39,000  Level Kansas City Center
Sat 03:56:51 AM 38.0908 -91.7936 85° East 437 503 39,000  Level Kansas City Center
Sat 03:57:51 AM 38.1019 -91.6364 85° East 441 507 39,000  Level Kansas City Center
Sat 03:58:54 AM 38.1117 -91.4783 85° East 445 512 39,000  Level Kansas City Center
Sat 03:59:54 AM 38.1217 -91.3206 85° East 447 514 39,000  Level Kansas City Center
Sat 04:00:55 AM 38.1319 -91.1628 85° East 447 514 39,000  Level Kansas City Center
Sat 04:01:55 AM 38.1417 -91.0117 85° East 446 513 39,000  Level Kansas City Center
Sat 04:02:55 AM 38.1506 -90.8592 86° East 440 506 39,000  Level Kansas City Center
Sat 04:03:55 AM 38.1592 -90.7061 86° East 439 505 39,000  Level Kansas City Center
Sat 04:04:56 AM 38.1694 -90.5236 86° East 436 502 39,000  Level Kansas City Center
Sat 04:05:56 AM 38.1778 -90.3714 86° East 436 502 39,000  Level Kansas City Center
Sat 04:06:56 AM 38.1872 -90.2183 85° East 437 503 39,000  Level Kansas City Center
Sat 04:07:57 AM 38.1944 -90.0647 87° East 439 505 39,000  Level Kansas City Center
Sat 04:08:57 AM 38.2042 -89.9086 85° East 443 510 39,000  Level Kansas City Center
Sat 04:09:57 AM 38.2122 -89.7519 86° East 445 512 39,000  Level Kansas City Center
Sat 04:10:58 AM 38.2206 -89.5986 86° East 441 507 39,000  Level Kansas City Center
Sat 04:11:58 AM 38.2275 -89.4436 87° East 441 507 39,000  Level Kansas City Center
Sat 04:12:58 AM 38.2353 -89.2889 86° East 440 506 39,000  Level Kansas City Center
Sat 04:13:59 AM 38.2422 -89.1353 87° East 438 504 39,000  Level Kansas City Center
Sat 04:14:59 AM 38.2483 -88.9831 87° East 435 501 39,000  Level Kansas City Center
Sat 04:15:59 AM 38.2533 -88.8306 88° East 435 501 39,000  Level Kansas City Center
Sat 04:17:00 AM 38.2614 -88.6650 86° East 439 505 39,000  Level Kansas City Center
Sat 04:18:00 AM 38.2672 -88.5103 87° East 438 504 39,000  Level Kansas City Center
Sat 04:19:00 AM 38.2742 -88.3561 87° East 436 502 39,000  Level Kansas City Center
Sat 04:20:01 AM 38.2803 -88.2006 87° East 438 504 39,000  Level Kansas City Center
Sat 04:21:01 AM 38.2861 -88.0464 87° East 436 502 39,000  Level Kansas City Center
Sat 04:22:01 AM 38.2925 -87.8917 87° East 437 503 39,000  Level Kansas City Center
Sat 04:23:01 AM 38.2992 -87.7361 87° East 440 506 39,000  Level Indianapolis Center
Sat 04:24:01 AM 38.3039 -87.5794 88° East 441 507 39,000  Level Indianapolis Center
Sat 04:25:02 AM 38.3092 -87.4236 87° East 440 506 39,000  Level Indianapolis Center
Sat 04:26:02 AM 38.3142 -87.2692 88° East 438 504 39,000  Level Indianapolis Center
Sat 04:27:02 AM 38.3181 -87.1286 88° East 440 506 39,000  Level Indianapolis Center
Sat 04:28:02 AM 38.3225 -86.9719 88° East 442 509 39,000  Level Indianapolis Center
Sat 04:29:02 AM 38.3267 -86.8106 88° East 446 513 39,000  Level Indianapolis Center
Sat 04:30:02 AM 38.3303 -86.6536 88° East 444 511 39,000  Level Indianapolis Center
Sat 04:31:02 AM 38.3344 -86.4978 88° East 440 506 39,000  Level Indianapolis Center
Sat 04:32:03 AM 38.3375 -86.3400 89° East 444 511 39,000  Level Indianapolis Center
Sat 04:33:03 AM 38.3419 -86.1825 88° East 443 510 39,000  Level Indianapolis Center
Sat 04:34:03 AM 38.3450 -86.0247 89° East 444 511 39,000  Level Indianapolis Center
Sat 04:35:03 AM 38.3483 -85.8675 88° East 443 510 39,000  Level Indianapolis Center
Sat 04:36:03 AM 38.3514 -85.7111 89° East 441 507 39,000  Level Indianapolis Center
Sat 04:37:03 AM 38.3539 -85.5536 89° East 444 511 39,000  Level Indianapolis Center
Sat 04:38:03 AM 38.3567 -85.3953 89° East 445 512 39,000  Level Indianapolis Center
Sat 04:39:04 AM 38.3594 -85.2389 89° East 442 509 39,000  Level Indianapolis Center
Sat 04:40:04 AM 38.3600 -85.0708 90° East 448 516 39,000  Level Indianapolis Center
Sat 04:41:04 AM 38.3622 -84.9117 89° East 449 517 39,000  Level Indianapolis Center
Sat 04:42:04 AM 38.3625 -84.7531 90° East 447 514 39,000  Level Indianapolis Center
Sat 04:43:04 AM 38.3636 -84.5947 89° East 446 513 39,000  Level Indianapolis Center
Sat 04:44:05 AM 38.3656 -84.4375 89° East 444 511 39,000  Level Indianapolis Center
Sat 04:45:05 AM 38.3656 -84.2789 90° East 445 512 39,000  Level Indianapolis Center
Sat 04:46:05 AM 38.3667 -84.1228 89° East 443 510 39,000  Level Indianapolis Center
Sat 04:47:06 AM 38.3667 -83.9664 90° East 441 507 39,000  Level Indianapolis Center
Sat 04:48:06 AM 38.3667 -83.8089 90° East 443 510 39,000  Level Indianapolis Center
Sat 04:49:06 AM 38.3661 -83.6533 90° East 440 506 39,000  Level Indianapolis Center
Sat 04:50:06 AM 38.3767 -83.4986 85° East 438 504 39,000  Level Indianapolis Center
Sat 04:51:07 AM 38.3914 -83.3447 83° East 437 503 39,000  Level Indianapolis Center
Sat 04:52:07 AM 38.4044 -83.1894 84° East 438 504 39,000  Level Indianapolis Center
Sat 04:53:07 AM 38.4181 -83.0342 84° East 440 506 39,000  Level Indianapolis Center
Sat 04:54:08 AM 38.4317 -82.8756 84° East 446 513 39,000  Level Indianapolis Center
Sat 04:55:08 AM 38.4461 -82.7156 83° East 450 518 39,000  Level Indianapolis Center
Sat 04:56:08 AM 38.4589 -82.5567 84° East 451 519 39,000  Level Indianapolis Center
Sat 04:57:09 AM 38.4714 -82.4019 84° East 449 517 39,000  Level Indianapolis Center
Sat 04:58:09 AM 38.4847 -82.2442 84° East 447 514 39,000  Level Indianapolis Center
Sat 04:59:09 AM 38.4975 -82.0861 84° East 448 516 39,000  Level Indianapolis Center
Sat 05:00:10 AM 38.5097 -81.9306 84° East 445 512 39,000  Level Indianapolis Center
Sat 05:01:10 AM 38.5217 -81.7731 84° East 447 514 39,000  Level Indianapolis Center
Sat 05:02:11 AM 38.5325 -81.6164 85° East 450 518 39,000  Level Indianapolis Center
Sat 05:03:11 AM 38.5436 -81.4589 85° East 454 522 39,000  Level Indianapolis Center
Sat 05:04:12 AM 38.5558 -81.3017 84° East 453 521 39,000  Level Indianapolis Center
Sat 05:05:12 AM 38.5672 -81.1414 85° East 457 526 39,000  Level Indianapolis Center
Sat 05:06:12 AM 38.5792 -80.9794 85° East 459 528 39,000  Level Indianapolis Center
Sat 05:07:13 AM 38.5919 -80.7819 85° East 465 535 39,000  Level Indianapolis Center
Sat 05:08:13 AM 38.6031 -80.6164 85° East 468 539 39,000  Level Indianapolis Center
Sat 05:09:14 AM 38.6142 -80.4514 85° East 468 539 39,000 -164 Level Indianapolis Center
Sat 05:10:03 AM 38.6236 -80.3406 84° East 460 529 38,700 -1,817 Descending Washington Center
Sat 05:11:03 AM 38.6350 -80.1553 85° East 460 529 35,700 -2,926 Descending Washington Center
Sat 05:12:04 AM 38.6475 -79.9858 85° East 466 536 32,800 -2,909 Descending Washington Center
Sat 05:13:15 AM 38.6558 -79.7811 87° East 473 544 29,300 -2,672 Descending Indianapolis Center
Sat 05:14:03 AM 38.6675 -79.6572 83° East 471 542 27,500 -2,432 Descending Washington Center
Sat 05:15:06 AM 38.6750 -79.4928 87° East 465 535 24,800 -2,262 Descending Washington Center
Sat 05:16:05 AM 38.6836 -79.3522 85° East 450 518 22,900 -2,000 Descending Washington Center
Sat 05:17:03 AM 38.6911 -79.1797 87° East 443 510 20,900 -1,983 Descending Washington Center
Sat 05:18:03 AM 38.6975 -79.0311 87° East 432 497 19,000 -1,561 Descending Washington Center
Sat 05:19:06 AM 38.7053 -78.9039 85° East 420 483 17,700 -1,600 Descending Washington Center
Sat 05:20:03 AM 38.7111 -78.7603 87° East 407 468 15,800 -1,850 Descending Washington Center
Sat 05:21:06 AM 38.7189 -78.6222 86° East 396 456 14,000 -1,800 Descending Washington Center
Sat 05:22:03 AM 38.7242 -78.4894 87° East 383 441 12,200 -1,500 Descending Washington Center
Sat 05:23:06 AM 38.7208 -78.3697 92° East 360 414 11,000 -934 Descending Washington Center
Sat 05:24:05 AM 38.7172 -78.2578 92° East 331 381 10,300 -872 Descending Washington Center
Sat 05:25:03 AM 38.7133 -78.1483 93° East 311 358 9,300 -1,250 Descending Washington Center
Sat 05:26:05 AM 38.7133 -78.0447 90° East 301 346 7,800 -1,150 Descending Washington Center
Sat 05:27:03 AM 38.7094 -77.9303 92° East 290 334 7,000 -508 Descending Washington Center
Sat 05:28:03 AM 38.7089 -77.8422 90° East 271 312 6,800 -645 Descending Washington Center
Sat 05:29:04 AM 38.7353 -77.7633 67° East 243 280 5,700 -1,050 Descending Washington Center
Sat 05:30:03 AM 38.7617 -77.6842 67° East 237 273 4,700 -800 Descending Washington Center
Sat 05:31:34 AM 38.8000 -77.5833 64° Northeast 213 245 3,700 -636 Descending Potomac TRACON
Sat 05:32:34 AM 38.8167 -77.5333 67° East 179 206 3,100 -600 Descending Potomac TRACON
Sat 05:33:34 AM 38.8333 -77.4833 67° East 154 177 2,500 -650 Descending Potomac TRACON
Sat 05:34:34 AM 38.8500 -77.4333 67° East 131 151 1,800 -700 Descending Potomac TRACON
Sat 05:35:34 AM 38.8833 -77.4333 360° North 129 148 1,100 -700 Descending Potomac TRACON
Sat 05:37:00 AM 38.9474 -77.4599 342° North  Level Estimated
Sat 05:44:00 AM 38.9474 -77.4599 322° Northwest  Level Estimated
Sat 05:45:00 AM 38.9474 -77.4599 322° Northwest  Level Estimated
Sat 05:46:00 AM 38.9474 -77.4599 322° Northwest  Level Estimated

Login

Don't have an account? Register now (free) for customized features, flight alerts, and more!